createdAt,value
2018-04-02T00:02:21.812Z,29.10
2018-04-02T00:04:49.363Z,27.77
2018-04-02T00:07:17.663Z,24.60
2018-04-02T00:09:45.214Z,27.13
2018-04-02T00:12:12.750Z,34.77
2018-04-02T00:14:40.319Z,34.70
2018-04-02T00:17:07.849Z,32.17
2018-04-02T00:19:35.403Z,31.40
2018-04-02T00:22:02.929Z,29.67
2018-04-02T00:24:30.501Z,32.30
2018-04-02T00:26:58.110Z,28.90
2018-04-02T00:29:25.668Z,31.57
2018-04-02T00:31:53.204Z,32.57
2018-04-02T00:34:20.767Z,30.00
2018-04-02T00:36:48.299Z,34.83
2018-04-02T00:39:16.626Z,28.43
2018-04-02T00:41:44.162Z,33.10
2018-04-02T00:44:12.430Z,28.37
2018-04-02T00:46:40.726Z,28.50
2018-04-02T00:49:08.288Z,32.93
2018-04-02T00:51:35.817Z,28.13
2018-04-02T00:54:04.142Z,29.97
2018-04-02T00:56:31.675Z,34.63
2018-04-02T00:58:59.235Z,32.87
2018-04-02T01:01:26.774Z,30.27
2018-04-02T01:03:55.098Z,32.63
2018-04-02T01:06:22.631Z,30.33
2018-04-02T01:08:50.190Z,31.57
2018-04-02T01:11:17.721Z,34.30
2018-04-02T01:13:45.246Z,32.50
2018-04-02T01:16:12.803Z,34.93
2018-04-02T01:18:40.331Z,27.70
2018-04-02T01:21:07.893Z,33.03
2018-04-02T01:23:35.418Z,32.97
2018-04-02T01:26:03.746Z,31.57
2018-04-02T01:28:31.279Z,34.33
2018-04-02T01:30:58.838Z,31.40
2018-04-02T01:33:27.139Z,32.03
2018-04-02T01:35:54.704Z,30.10
2018-04-02T01:38:22.235Z,35.00
2018-04-02T01:40:49.798Z,33.70
2018-04-02T01:43:17.335Z,31.60
2018-04-02T01:45:45.673Z,34.40
2018-04-02T01:48:13.228Z,28.40
2018-04-02T01:50:40.783Z,36.00
2018-04-02T01:53:08.318Z,36.60
2018-04-02T01:55:35.875Z,29.43
2018-04-02T01:58:03.406Z,30.47
2018-04-02T02:00:30.957Z,37.70
2018-04-02T02:02:58.503Z,30.07
2018-04-02T02:05:26.063Z,27.10
2018-04-02T02:07:53.606Z,31.70
2018-04-02T02:10:21.163Z,31.20
2018-04-02T02:12:48.695Z,32.50
2018-04-02T02:15:16.255Z,34.07
2018-04-02T02:17:43.791Z,35.40
2018-04-02T02:20:12.122Z,30.73
2018-04-02T02:22:39.650Z,36.00
2018-04-02T02:25:07.213Z,35.37
2018-04-02T02:27:34.760Z,32.20
2018-04-02T02:30:03.081Z,32.50
2018-04-02T02:32:30.618Z,27.80
2018-04-02T02:34:58.185Z,30.53
2018-04-02T02:37:25.757Z,28.67
2018-04-02T02:39:53.306Z,27.20
2018-04-02T02:42:20.835Z,32.87
2018-04-02T02:44:49.172Z,33.70
2018-04-02T02:47:17.503Z,29.63
2018-04-02T02:49:45.060Z,32.57
2018-04-02T02:52:12.596Z,28.13
2018-04-02T02:54:40.926Z,31.10
2018-04-02T02:57:08.457Z,23.97
2018-04-02T02:59:36.022Z,28.90
2018-04-02T03:02:03.555Z,29.27
2018-04-02T03:04:31.887Z,30.27
2018-04-02T03:06:59.413Z,36.60
2018-04-02T03:09:26.985Z,37.43
2018-04-02T03:11:54.562Z,34.20
2018-04-02T03:14:22.118Z,35.93
2018-04-02T03:16:49.654Z,33.77
2018-04-02T03:19:17.192Z,32.43
2018-04-02T03:21:45.523Z,31.37
2018-04-02T03:24:13.059Z,27.00
2018-04-02T03:26:40.615Z,35.60
2018-04-02T03:29:08.142Z,30.40
2018-04-02T03:31:35.707Z,28.00
2018-04-02T03:34:04.006Z,25.40
2018-04-02T03:36:31.558Z,26.10
2018-04-02T03:38:59.859Z,24.00
2018-04-02T03:41:27.413Z,31.80
2018-04-02T03:43:54.952Z,26.47
2018-04-02T03:46:23.272Z,31.27
2018-04-02T03:48:50.811Z,28.10
2018-04-02T03:51:18.366Z,25.80
2018-04-02T03:53:45.898Z,29.23
2018-04-02T03:56:14.227Z,25.63
2018-04-02T03:58:41.762Z,25.97
2018-04-02T04:01:09.328Z,28.47
2018-04-02T04:03:36.867Z,28.30
2018-04-02T04:06:05.189Z,31.37
2018-04-02T04:08:32.715Z,27.53
2018-04-02T04:11:00.275Z,25.70
2018-04-02T04:13:27.811Z,25.80
2018-04-02T04:15:56.135Z,24.33
2018-04-02T04:18:23.671Z,24.80
2018-04-02T04:20:51.269Z,28.13
2018-04-02T04:23:18.816Z,21.57
2018-04-02T04:25:46.383Z,29.20
2018-04-02T04:28:13.920Z,21.90
2018-04-02T04:30:41.478Z,22.87
2018-04-02T04:33:09.021Z,26.93
2018-04-02T04:35:37.346Z,21.70
2018-04-02T04:38:04.882Z,20.13
2018-04-02T04:40:32.438Z,24.23
2018-04-02T04:42:59.980Z,22.73
2018-04-02T04:45:28.294Z,20.37
2018-04-02T04:47:55.829Z,20.77
2018-04-02T04:50:23.394Z,19.93
2018-04-02T04:52:50.927Z,19.37
2018-04-02T04:55:19.258Z,19.30
2018-04-02T04:57:46.791Z,19.27
2018-04-02T05:00:14.352Z,20.97
2018-04-02T05:02:41.878Z,21.67
2018-04-02T05:05:10.211Z,26.80
2018-04-02T05:07:37.746Z,20.80
2018-04-02T05:10:05.307Z,25.23
2018-04-02T05:12:32.829Z,22.20
2018-04-02T05:15:00.390Z,29.10
2018-04-02T05:17:27.918Z,23.83
2018-04-02T05:19:56.248Z,27.03
2018-04-02T05:22:24.535Z,22.37
2018-04-02T05:24:52.098Z,22.30
2018-04-02T05:27:19.637Z,23.63
2018-04-02T05:29:47.945Z,19.30
2018-04-02T05:32:15.498Z,23.80
2018-04-02T05:34:43.027Z,22.87
2018-04-02T05:37:11.347Z,24.03
2018-04-02T05:39:38.878Z,21.77
2018-04-02T05:42:06.442Z,25.80
2018-04-02T05:44:33.976Z,21.70
2018-04-02T05:47:02.044Z,18.13
2018-04-02T05:49:30.489Z,17.63
2018-04-02T05:51:58.759Z,20.70
2018-04-02T05:54:27.069Z,18.20
2018-04-02T05:56:54.865Z,25.33
2018-04-02T05:59:23.192Z,21.73
2018-04-02T06:01:50.753Z,25.17
2018-04-02T06:04:18.278Z,23.50
2018-04-02T06:06:45.840Z,25.60
2018-04-02T06:09:13.368Z,20.73
2018-04-02T06:11:42.025Z,26.20
2018-04-02T06:14:09.693Z,29.00
2018-04-02T06:16:38.392Z,26.57
2018-04-02T06:19:05.928Z,26.33
2018-04-02T06:21:33.483Z,25.80
2018-04-02T06:24:01.034Z,22.37
2018-04-02T06:26:28.616Z,23.67
2018-04-02T06:28:56.150Z,22.63
2018-04-02T06:52:16.771Z,17.50
2018-04-02T06:54:44.302Z,16.10
2018-04-02T06:57:12.624Z,15.43
2018-04-02T06:59:40.151Z,15.93
2018-04-02T07:02:08.465Z,18.77
2018-04-02T07:04:36.007Z,15.60
2018-04-02T07:07:03.558Z,13.23
2018-04-02T07:09:31.854Z,13.43
2018-04-02T07:11:59.417Z,16.50
2018-04-02T07:14:26.957Z,15.87
2018-04-02T07:16:54.583Z,14.73
2018-04-02T07:19:22.116Z,14.47
2018-04-02T07:21:49.681Z,15.03
2018-04-02T07:24:17.216Z,13.63
2018-04-02T07:26:44.800Z,15.03
2018-04-02T07:29:12.330Z,17.37
2018-04-02T07:31:39.891Z,16.80
2018-04-02T07:34:07.423Z,18.07
2018-04-02T07:36:35.739Z,13.00
2018-04-02T07:39:03.267Z,18.83
2018-04-02T07:41:30.826Z,16.47
2018-04-02T07:43:59.122Z,16.30
2018-04-02T07:46:26.666Z,12.03
2018-04-02T07:48:54.972Z,14.33
2018-04-02T07:51:43.122Z,15.00
2018-04-02T07:54:10.658Z,11.37
2018-04-02T07:56:38.214Z,12.30
2018-04-02T07:59:05.754Z,10.77
2018-04-02T08:01:34.078Z,10.47
2018-04-02T08:04:01.610Z,10.50
2018-04-02T08:06:29.170Z,10.20
2018-04-02T08:08:56.702Z,11.33
2018-04-02T08:11:24.254Z,14.40
2018-04-02T08:13:51.782Z,10.17
2018-04-02T08:16:19.334Z,10.87
2018-04-02T08:18:46.870Z,9.60
2018-04-02T08:21:14.421Z,11.57
2018-04-02T08:23:42.715Z,11.10
2018-04-02T08:26:10.304Z,8.80
2018-04-02T08:28:37.829Z,8.37
2018-04-02T08:31:05.382Z,10.70
2018-04-02T08:33:32.907Z,7.43
2018-04-02T08:36:00.501Z,8.10
2018-04-02T08:38:28.047Z,9.20
2018-04-02T08:40:56.333Z,8.50
2018-04-02T08:43:24.650Z,12.03
2018-04-02T08:45:52.171Z,8.60
2018-04-02T08:48:20.486Z,8.80
2018-04-02T08:50:48.011Z,10.87
2018-04-02T08:53:15.567Z,8.23
2018-04-02T08:55:43.857Z,7.53
2018-04-02T08:58:11.410Z,7.53
2018-04-02T09:00:38.940Z,5.90
2018-04-02T09:03:07.271Z,8.20
2018-04-02T09:05:34.803Z,6.70
2018-04-02T09:08:02.362Z,5.90
2018-04-02T09:10:29.899Z,9.87
2018-04-02T09:12:58.224Z,5.60
2018-04-02T09:15:25.750Z,4.80
2018-04-02T09:17:54.073Z,4.80
2018-04-02T09:20:22.618Z,6.20
2018-04-02T09:22:50.170Z,9.57
2018-04-02T09:25:18.463Z,4.20
2018-04-02T09:27:46.027Z,9.63
2018-04-02T09:30:13.567Z,4.63
2018-04-02T09:32:41.883Z,3.87
2018-04-02T09:35:09.417Z,4.93
2018-04-02T09:37:36.969Z,4.00
2018-04-02T09:40:04.499Z,4.60
2018-04-02T09:42:32.057Z,3.20
2018-04-02T09:44:59.590Z,4.93
2018-04-02T09:47:27.156Z,4.30
2018-04-02T09:49:54.687Z,3.90
2018-04-02T09:52:22.242Z,3.60
2018-04-02T09:54:49.771Z,3.07
2018-04-02T09:57:18.093Z,3.77
2018-04-02T09:59:45.622Z,3.63
2018-04-02T10:02:13.986Z,4.53
2018-04-02T10:04:43.200Z,5.47
2018-04-02T10:07:10.682Z,3.10
2018-04-02T10:09:38.214Z,4.07
2018-04-02T10:12:06.538Z,4.97
2018-04-02T10:14:34.064Z,3.90
2018-04-02T10:17:01.617Z,3.83
2018-04-02T10:19:29.150Z,3.57
2018-04-02T10:21:56.722Z,3.97
2018-04-02T10:24:25.015Z,4.40
2018-04-02T10:26:52.558Z,3.90
2018-04-02T10:29:20.857Z,3.50
2018-04-02T10:31:48.414Z,5.73
2018-04-02T10:34:15.942Z,4.20
2018-04-02T10:36:43.499Z,6.83
2018-04-02T10:39:11.026Z,3.80
2018-04-02T10:41:38.603Z,4.10
2018-04-02T10:44:06.134Z,2.83
2018-04-02T10:46:33.686Z,4.30
2018-04-02T10:49:01.217Z,3.07
2018-04-02T10:51:29.510Z,4.03
2018-04-02T10:53:57.119Z,2.90
2018-04-02T10:56:24.615Z,6.13
2018-04-02T10:58:52.935Z,3.50
2018-04-02T11:01:20.471Z,5.57
2018-04-02T11:03:48.028Z,4.80
2018-04-02T11:06:15.562Z,5.67
2018-04-02T11:08:43.899Z,4.67
2018-04-02T11:11:11.434Z,4.33
2018-04-02T11:13:38.978Z,6.93
2018-04-02T11:16:07.267Z,6.33
2018-04-02T11:18:34.839Z,7.20
2018-04-02T11:21:02.366Z,7.40
2018-04-02T11:23:30.679Z,3.93
2018-04-02T11:25:58.330Z,4.03
2018-04-02T11:28:25.895Z,4.90
2018-04-02T11:30:53.420Z,4.37
2018-04-02T11:33:21.790Z,4.17
2018-04-02T11:35:49.320Z,4.80
2018-04-02T11:38:16.874Z,6.07
2018-04-02T11:40:44.411Z,3.97
2018-04-02T11:43:11.958Z,7.03
2018-04-02T11:45:39.486Z,4.27
2018-04-02T11:48:07.812Z,4.83
2018-04-02T11:50:35.352Z,4.53
2018-04-02T11:53:02.894Z,6.83
2018-04-02T11:55:31.186Z,4.40
2018-04-02T11:57:58.734Z,4.90
2018-04-02T12:00:27.027Z,5.90
2018-04-02T12:02:54.583Z,4.03
2018-04-02T12:05:22.144Z,4.70
2018-04-02T12:07:50.446Z,6.07
2018-04-02T12:10:17.971Z,4.40
2018-04-02T12:12:45.535Z,3.63
2018-04-02T12:15:13.834Z,6.10
2018-04-02T12:17:41.378Z,4.73
2018-04-02T12:20:08.903Z,6.10
2018-04-02T12:22:36.457Z,4.80
2018-04-02T12:25:04.787Z,4.63
2018-04-02T12:27:33.187Z,5.87
2018-04-02T12:30:00.772Z,3.30
2018-04-02T12:32:28.322Z,5.60
2018-04-02T12:34:55.854Z,4.80
2018-04-02T12:37:23.403Z,7.63
2018-04-02T12:39:50.922Z,3.40
2018-04-02T12:42:18.482Z,3.00
2018-04-02T12:44:46.786Z,3.33
2018-04-02T12:47:14.334Z,3.47
2018-04-02T12:49:42.631Z,4.67
2018-04-02T12:52:10.182Z,4.67
2018-04-02T12:54:37.774Z,3.87
2018-04-02T12:57:05.409Z,4.27
2018-04-02T12:59:32.934Z,3.40
2018-04-02T13:02:00.462Z,5.83
2018-04-02T13:04:28.056Z,4.33
2018-04-02T13:06:55.558Z,2.73
2018-04-02T13:09:23.112Z,4.67
2018-04-02T13:11:50.634Z,2.90
2018-04-02T13:14:18.187Z,4.80
2018-04-02T13:16:45.715Z,4.60
2018-04-02T13:19:13.266Z,4.73
2018-04-02T13:21:40.808Z,3.00
2018-04-02T13:24:08.363Z,5.23
2018-04-02T13:26:35.891Z,3.60
2018-04-02T13:29:03.450Z,2.87
2018-04-02T13:31:31.041Z,4.07
2018-04-02T13:33:58.546Z,4.17
2018-04-02T13:36:26.076Z,7.30
2018-04-02T13:38:53.637Z,3.23
2018-04-02T13:41:21.161Z,3.90
2018-04-02T13:43:49.488Z,6.17
2018-04-02T13:46:17.026Z,3.83
2018-04-02T13:48:44.582Z,3.33
2018-04-02T13:51:12.107Z,4.53
2018-04-02T13:53:39.658Z,5.93
2018-04-02T13:56:07.186Z,3.23
2018-04-02T13:58:34.738Z,4.57
2018-04-02T14:01:02.262Z,5.20
2018-04-02T14:03:30.589Z,4.13
2018-04-02T14:05:58.109Z,2.93
2018-04-02T14:08:25.658Z,3.60
2018-04-02T14:10:54.010Z,5.77
2018-04-02T14:13:21.525Z,4.43
2018-04-02T14:15:49.050Z,3.13
2018-04-02T14:18:17.378Z,2.87
2018-04-02T14:20:44.911Z,4.83
2018-04-02T14:23:12.467Z,10.63
2018-04-02T14:25:39.998Z,4.17
2018-04-02T14:28:08.318Z,4.63
2018-04-02T14:30:35.846Z,3.00
2018-04-02T14:33:04.166Z,4.47
2018-04-02T14:35:31.694Z,4.70
2018-04-02T14:37:59.246Z,5.07
2018-04-02T14:40:27.538Z,5.80
2018-04-02T14:42:55.086Z,4.63
2018-04-02T14:45:23.383Z,4.33
2018-04-02T14:47:50.929Z,4.00
2018-04-02T14:50:18.465Z,5.07
2018-04-02T14:52:46.018Z,3.43
2018-04-02T14:55:13.551Z,4.00
2018-04-02T14:57:41.094Z,5.70
2018-04-02T15:00:08.614Z,3.73
2018-04-02T15:02:36.930Z,4.37
2018-04-02T15:05:04.467Z,6.43
2018-04-02T15:07:32.027Z,6.47
2018-04-02T15:09:59.557Z,23.77
2018-04-02T15:12:27.086Z,33.40
2018-04-02T15:14:54.690Z,22.37
2018-04-02T15:17:23.105Z,22.70
2018-04-02T15:19:50.655Z,8.60
2018-04-02T15:22:18.190Z,44.97
2018-04-02T15:24:46.518Z,56.70
2018-04-02T15:27:14.052Z,35.10
2018-04-02T15:29:41.617Z,4.50
2018-04-02T15:32:09.154Z,5.40
2018-04-02T15:34:37.462Z,8.87
2018-04-02T15:37:04.998Z,7.00
2018-04-02T15:39:32.559Z,6.60
2018-04-02T15:42:00.204Z,6.00
2018-04-02T15:44:28.533Z,10.70
2018-04-02T15:46:56.078Z,79.83
2018-04-02T15:49:23.636Z,10.27
2018-04-02T15:51:51.162Z,8.87
2018-04-02T15:54:19.485Z,9.30
2018-04-02T15:56:47.009Z,5.20
2018-04-02T15:59:14.559Z,4.20
2018-04-02T16:01:42.909Z,5.20
2018-04-02T16:04:10.434Z,3.90
2018-04-02T16:06:38.023Z,4.90
2018-04-02T16:09:05.666Z,6.23
2018-04-02T16:11:33.955Z,3.97
2018-04-02T16:14:01.523Z,3.77
2018-04-02T16:16:29.139Z,3.20
2018-04-02T16:18:56.657Z,6.27
2018-04-02T16:21:24.212Z,3.50
2018-04-02T16:23:51.733Z,4.47
2018-04-02T16:26:19.290Z,5.40
2018-04-02T16:28:46.831Z,3.40
2018-04-02T16:31:14.378Z,4.10
2018-04-02T16:33:42.669Z,5.07
2018-04-02T16:36:10.222Z,3.73
2018-04-02T16:38:37.943Z,3.30
2018-04-02T16:41:05.784Z,3.00
2018-04-02T16:43:33.332Z,5.23
2018-04-02T16:46:00.881Z,5.23
2018-04-02T16:48:28.416Z,6.40
2018-04-02T16:50:57.034Z,3.70
2018-04-02T16:53:24.615Z,3.40
2018-04-02T16:55:52.192Z,3.50
2018-04-02T16:58:19.728Z,3.20
2018-04-02T17:00:47.384Z,3.00
2018-04-02T17:03:14.943Z,3.80
2018-04-02T17:05:42.478Z,17.70
2018-04-02T17:08:10.040Z,3.67
2018-04-02T17:10:37.587Z,5.10
2018-04-02T17:13:05.969Z,4.03
2018-04-02T17:15:33.470Z,2.63
2018-04-02T17:18:01.021Z,3.33
2018-04-02T17:20:28.546Z,4.00
2018-04-02T17:22:56.870Z,6.13
2018-04-02T17:25:25.167Z,3.43
2018-04-02T17:27:52.717Z,3.43
2018-04-02T17:30:20.250Z,4.83
2018-04-02T17:32:47.800Z,4.13
2018-04-02T17:35:15.326Z,5.57
2018-04-02T17:37:43.647Z,3.97
2018-04-02T17:40:11.170Z,3.30
2018-04-02T17:42:39.491Z,3.87
2018-04-02T17:45:07.024Z,4.50
2018-04-02T17:47:34.586Z,3.10
2018-04-02T17:50:02.111Z,4.40
2018-04-02T17:52:29.667Z,5.73
2018-04-02T17:54:58.046Z,4.27
2018-04-02T17:57:25.710Z,8.67
2018-04-02T17:59:53.338Z,4.50
2018-04-02T18:02:20.870Z,3.37
2018-04-02T18:04:48.450Z,4.10
2018-04-02T18:07:16.380Z,6.77
2018-04-02T18:09:44.694Z,4.10
2018-04-02T18:12:12.222Z,4.60
2018-04-02T18:14:48.229Z,5.90
2018-04-02T18:17:15.765Z,5.80
2018-04-02T18:19:43.475Z,3.13
2018-04-02T18:22:10.966Z,4.00
2018-04-02T18:24:38.514Z,3.73
2018-04-02T18:27:06.807Z,4.43
2018-04-02T18:29:34.369Z,5.03
2018-04-02T18:32:01.900Z,6.20
2018-04-02T18:34:30.240Z,3.83
2018-04-02T18:36:57.872Z,7.57
2018-04-02T18:39:25.421Z,5.03
2018-04-02T18:41:52.956Z,4.37
2018-04-02T18:44:21.274Z,5.67
2018-04-02T18:46:48.823Z,4.33
2018-04-02T18:49:16.463Z,4.67
2018-04-02T18:51:44.763Z,4.70
2018-04-02T18:54:12.333Z,4.50
2018-04-02T18:56:39.866Z,3.73
2018-04-02T18:59:08.194Z,5.23
2018-04-02T19:01:35.719Z,4.20
2018-04-02T19:04:03.270Z,4.33
2018-04-02T19:06:31.557Z,6.33
2018-04-02T19:08:59.407Z,4.13
2018-04-02T19:11:27.018Z,5.33
2018-04-02T19:13:54.580Z,5.47
2018-04-02T19:16:22.155Z,9.13
2018-04-02T19:18:49.711Z,5.77
2018-04-02T19:21:17.234Z,4.70
2018-04-02T19:23:44.791Z,5.27
2018-04-02T19:26:12.310Z,3.90
2018-04-02T19:28:39.862Z,4.30
2018-04-02T19:31:07.383Z,5.67
2018-04-02T19:33:34.940Z,6.03
2018-04-02T19:36:02.463Z,4.87
2018-04-02T19:38:30.754Z,7.83
2018-04-02T19:40:58.311Z,4.37
2018-04-02T19:43:25.843Z,5.70
2018-04-02T19:45:53.391Z,5.87
2018-04-02T19:48:21.714Z,4.50
2018-04-02T19:50:49.276Z,5.17
2018-04-02T19:53:16.803Z,4.83
2018-04-02T19:55:44.357Z,6.37
2018-04-02T19:58:11.887Z,8.20
2018-04-02T20:00:39.442Z,7.10
2018-04-02T20:03:06.977Z,6.10
2018-04-02T20:05:34.527Z,6.30
2018-04-02T20:08:02.058Z,4.93
2018-04-02T20:10:30.382Z,6.10
2018-04-02T20:12:57.984Z,5.70
2018-04-02T20:15:25.569Z,5.93
2018-04-02T20:17:53.861Z,6.20
2018-04-02T20:20:21.459Z,7.27
2018-04-02T20:22:49.099Z,4.57
2018-04-02T20:25:16.676Z,9.10
2018-04-02T20:27:44.231Z,10.17
2018-04-02T20:30:11.782Z,8.17
2018-04-02T20:32:39.470Z,8.40
2018-04-02T20:35:07.167Z,12.53
2018-04-02T20:37:34.696Z,5.50
2018-04-02T20:40:02.258Z,7.57
2018-04-02T20:42:30.439Z,8.57
2018-04-02T20:44:58.021Z,7.77
2018-04-02T20:47:25.676Z,7.50
2018-04-02T20:49:53.399Z,7.93
2018-04-02T20:52:21.518Z,5.73
2018-04-02T20:54:50.606Z,6.53
2018-04-02T20:57:18.178Z,5.77
2018-04-02T20:59:47.225Z,10.30
2018-04-02T21:02:14.766Z,7.57
2018-04-02T21:04:42.570Z,6.93
2018-04-02T21:07:10.575Z,5.57
2018-04-02T21:09:38.244Z,6.13
2018-04-02T21:12:05.891Z,7.07
2018-04-02T21:14:34.273Z,9.33
2018-04-02T21:17:01.862Z,6.30
2018-04-02T21:19:29.390Z,6.67
2018-04-02T21:21:57.766Z,5.60
2018-04-02T21:24:25.295Z,4.03
2018-04-02T21:26:52.906Z,7.70
2018-04-02T21:29:21.231Z,15.33
2018-04-02T21:31:48.762Z,11.53
2018-04-02T21:34:16.330Z,11.93
2018-04-02T21:36:43.858Z,11.97
2018-04-02T21:39:12.194Z,8.33
2018-04-02T21:41:39.727Z,7.80
2018-04-02T21:44:07.279Z,5.20
2018-04-02T21:46:34.803Z,7.47
2018-04-02T21:49:02.367Z,7.60
2018-04-02T21:51:30.686Z,3.97
2018-04-02T21:53:58.240Z,8.37
2018-04-02T21:56:25.775Z,4.53
2018-04-02T21:58:54.091Z,6.23
2018-04-02T22:01:21.623Z,2.40
2018-04-02T22:03:49.303Z,6.00
2018-04-02T22:06:28.745Z,3.10
2018-04-02T22:08:56.445Z,3.63
2018-04-02T22:11:23.982Z,2.50
2018-04-02T22:13:51.514Z,3.90
2018-04-02T22:16:19.094Z,3.13
2018-04-02T22:18:46.622Z,5.17
2018-04-02T22:21:14.318Z,3.77
2018-04-02T22:23:41.851Z,2.33
2018-04-02T22:26:09.403Z,5.33
2018-04-02T22:28:36.941Z,2.30
2018-04-02T22:31:05.265Z,2.67
2018-04-02T22:33:32.806Z,4.50
2018-04-02T22:36:00.366Z,4.77
2018-04-02T22:38:28.050Z,3.50
2018-04-02T22:41:12.478Z,3.40
2018-04-02T22:43:40.010Z,2.80
2018-04-02T22:46:22.810Z,6.60
2018-04-02T22:48:50.343Z,3.13
2018-04-02T22:51:17.986Z,4.13
2018-04-02T22:53:45.515Z,3.47
2018-04-02T22:56:13.906Z,3.40
2018-04-02T22:58:42.197Z,2.90
2018-04-02T23:01:10.174Z,4.97
2018-04-02T23:03:37.707Z,10.13
2018-04-02T23:06:06.035Z,4.13
2018-04-02T23:08:33.566Z,4.43
2018-04-02T23:11:01.127Z,2.50
2018-04-02T23:13:28.655Z,3.80
2018-04-02T23:15:56.981Z,2.40
2018-04-02T23:18:24.507Z,7.57
2018-04-02T23:20:52.819Z,5.10
2018-04-02T23:23:20.346Z,2.50
2018-04-02T23:25:48.681Z,3.33
2018-04-02T23:28:16.228Z,3.00
2018-04-02T23:30:44.550Z,4.03
2018-04-02T23:33:12.842Z,2.93
2018-04-02T23:35:40.402Z,3.43
2018-04-02T23:38:08.699Z,4.20
2018-04-02T23:40:36.256Z,5.53
2018-04-02T23:43:03.782Z,3.40
2018-04-02T23:45:32.104Z,6.40
2018-04-02T23:47:59.638Z,2.73
2018-04-02T23:50:27.190Z,4.20
2018-04-02T23:52:55.486Z,6.30
2018-04-02T23:55:23.035Z,2.97
2018-04-02T23:57:50.566Z,3.33
